createdAt,value
2023-05-19T00:00:31.369Z,93569.84
2023-05-19T00:05:41.118Z,93575.31
2023-05-19T00:10:45.246Z,93559.28
2023-05-19T00:15:49.561Z,93561.28
2023-05-19T00:20:53.615Z,93548.78
2023-05-19T00:25:57.278Z,93546.78
2023-05-19T00:31:02.375Z,93550.72
2023-05-19T00:36:07.296Z,93546.41
2023-05-19T00:41:11.459Z,93539.72
2023-05-19T00:46:15.426Z,93526.44
2023-05-19T00:51:19.333Z,93537.00
2023-05-19T00:56:23.438Z,93527.19
2023-05-19T01:01:28.234Z,93528.00
2023-05-19T01:06:31.846Z,93528.81
2023-05-19T01:11:35.849Z,93528.81
2023-05-19T01:16:44.315Z,93525.66
2023-05-19T01:22:23.168Z,93516.63
2023-05-19T01:27:50.222Z,93531.94
2023-05-19T01:33:03.027Z,93523.34
2023-05-19T01:38:09.767Z,93526.47
2023-05-19T01:43:18.300Z,93522.16
2023-05-19T01:48:23.756Z,93524.13
2023-05-19T01:53:27.437Z,93506.88
2023-05-19T01:58:47.782Z,93517.44
2023-05-19T02:04:06.068Z,93519.41
2023-05-19T02:09:16.459Z,93508.47
2023-05-19T02:14:46.072Z,93495.53
2023-05-19T02:19:50.142Z,93495.13
2023-05-19T02:24:56.726Z,93509.22
2023-05-19T02:30:00.309Z,93488.09
2023-05-19T02:35:04.386Z,93488.09
2023-05-19T02:40:08.740Z,93488.84
2023-05-19T02:45:12.464Z,93481.84
2023-05-19T02:50:18.784Z,93480.66
2023-05-19T02:55:22.236Z,93482.25
2023-05-19T03:00:26.394Z,93477.13
2023-05-19T03:05:33.239Z,93468.91
2023-05-19T03:10:37.118Z,93478.31
2023-05-19T03:15:40.748Z,93470.09
2023-05-19T03:20:44.964Z,93469.72
2023-05-19T03:25:48.154Z,93450.94
2023-05-19T03:30:52.368Z,93469.69
2023-05-19T03:35:59.625Z,93465.78
2023-05-19T03:41:06.294Z,93437.63
2023-05-19T03:46:11.047Z,93472.06
2023-05-19T03:51:30.910Z,93464.63
2023-05-19T03:56:54.484Z,93415.72
2023-05-19T04:01:58.912Z,93470.88
2023-05-19T04:07:02.994Z,93455.22
2023-05-19T04:12:07.062Z,93485.34
2023-05-19T04:17:10.440Z,93495.94
2023-05-19T04:22:14.161Z,93501.41
2023-05-19T04:27:19.034Z,93495.13
2023-05-19T04:32:23.431Z,93499.78
2023-05-19T04:37:28.000Z,93509.91
2023-05-19T04:42:33.459Z,93491.00
2023-05-19T04:47:39.100Z,93539.06
2023-05-19T04:52:42.972Z,93550.69
2023-05-19T04:57:47.430Z,93544.38
2023-05-19T05:02:51.768Z,93572.00
2023-05-19T05:07:57.735Z,93571.00
2023-05-19T05:13:04.076Z,93566.59
2023-05-19T05:18:09.258Z,93574.94
2023-05-19T05:23:17.089Z,93562.94
2023-05-19T05:28:23.608Z,93583.09
2023-05-19T05:33:27.612Z,93591.81
2023-05-19T05:38:32.534Z,93591.19
2023-05-19T05:43:36.897Z,93588.34
2023-05-19T05:48:43.296Z,93576.22
2023-05-19T05:53:53.245Z,93588.06
2023-05-19T05:58:59.676Z,93583.00
2023-05-19T06:04:03.603Z,93577.53
2023-05-19T06:09:08.357Z,93578.84
2023-05-19T06:14:13.794Z,93552.84
2023-05-19T06:19:35.826Z,93583.91
2023-05-19T06:24:41.599Z,93563.38
2023-05-19T06:29:46.695Z,93551.00
2023-05-19T06:34:54.437Z,93542.78
2023-05-19T06:39:59.085Z,93531.75
2023-05-19T06:45:03.896Z,93533.91
2023-05-19T06:50:07.989Z,93539.06
2023-05-19T06:55:13.571Z,93520.22
2023-05-19T07:00:18.832Z,93546.56
2023-05-19T07:05:25.360Z,93521.84
2023-05-19T07:10:35.255Z,93536.66
2023-05-19T07:15:43.494Z,93540.50
2023-05-19T07:20:47.167Z,93540.50
2023-05-19T07:25:56.742Z,93534.53
2023-05-19T07:31:01.272Z,93521.09
2023-05-19T07:36:05.333Z,93527.50
2023-05-19T07:41:09.170Z,93523.41
2023-05-19T07:46:12.918Z,93529.38
2023-05-19T07:51:16.986Z,93536.56
2023-05-19T07:56:22.093Z,93541.41
2023-05-19T08:01:26.736Z,93540.59
2023-05-19T08:06:30.944Z,93506.78
2023-05-19T08:11:34.586Z,93532.50
2023-05-19T08:16:37.929Z,93491.34
2023-05-19T08:21:42.876Z,93507.41
2023-05-19T08:26:46.698Z,93506.66
2023-05-19T08:31:50.925Z,93516.41
2023-05-19T08:36:58.116Z,93516.25
2023-05-19T08:42:02.779Z,93527.69
2023-05-19T08:47:08.403Z,93503.59
2023-05-19T08:52:21.235Z,93514.19
2023-05-19T08:57:29.872Z,93506.47
2023-05-19T09:02:34.420Z,93505.31
2023-05-19T09:07:38.729Z,93498.94
2023-05-19T09:12:46.813Z,93506.63
2023-05-19T09:17:50.485Z,93483.56
2023-05-19T09:22:54.315Z,93489.88
2023-05-19T09:27:58.144Z,93513.56
2023-05-19T09:33:01.786Z,93510.53
2023-05-19T09:38:06.644Z,93530.22
2023-05-19T09:43:10.979Z,93513.13
2023-05-19T09:48:16.904Z,93516.81
2023-05-19T09:53:22.826Z,93508.94
2023-05-19T09:58:27.452Z,93514.31
2023-05-19T10:03:33.840Z,93504.66
2023-05-19T10:08:40.360Z,93489.81
2023-05-19T10:13:48.051Z,93496.31
2023-05-19T10:18:56.033Z,93492.66
2023-05-19T10:24:00.809Z,93453.88
2023-05-19T10:29:29.287Z,93489.94
2023-05-19T10:35:05.655Z,93518.25
2023-05-19T10:40:14.383Z,93544.59
2023-05-19T10:45:24.772Z,93551.41
2023-05-19T10:50:29.936Z,93561.06
2023-05-19T10:55:53.706Z,93574.41
2023-05-19T11:01:08.326Z,93555.97
2023-05-19T11:06:36.539Z,93529.63
2023-05-19T11:11:50.208Z,93526.28
2023-05-19T11:16:59.154Z,93531.56
2023-05-19T11:22:14.091Z,93536.53
2023-05-19T11:27:37.860Z,93530.22
2023-05-19T11:32:46.849Z,93522.28
2023-05-19T11:37:52.973Z,93503.50
2023-05-19T11:42:56.807Z,93488.22
2023-05-19T11:48:03.017Z,93504.88
2023-05-19T11:53:06.474Z,93515.88
2023-05-19T11:58:10.048Z,93488.91
2023-05-19T12:03:13.984Z,93479.81
2023-05-19T12:08:21.893Z,93475.25
2023-05-19T12:13:26.457Z,93463.25
2023-05-19T12:18:34.675Z,93469.56
2023-05-19T12:23:39.650Z,93465.03
2023-05-19T12:28:46.354Z,93468.16
2023-05-19T12:34:08.568Z,93463.63
2023-05-19T12:39:13.526Z,93453.75
2023-05-19T12:44:18.921Z,93441.97
2023-05-19T12:49:22.943Z,93439.22
2023-05-19T12:54:27.898Z,93420.25
2023-05-19T12:59:38.904Z,93442.22
2023-05-19T13:05:01.761Z,93435.75
2023-05-19T13:10:06.886Z,93446.19
2023-05-19T13:15:10.932Z,93377.31
2023-05-19T13:20:15.777Z,93415.56
2023-05-19T13:25:19.182Z,93417.72
2023-05-19T13:30:24.518Z,93411.28
2023-05-19T13:35:28.797Z,93381.91
2023-05-19T13:40:35.200Z,93415.88
2023-05-19T13:45:39.799Z,93382.84
2023-05-19T13:50:43.553Z,93370.41
2023-05-19T13:55:48.653Z,93377.31
2023-05-19T14:00:54.993Z,93384.19
2023-05-19T14:05:58.935Z,93371.06
2023-05-19T14:11:02.923Z,93370.69
2023-05-19T14:16:07.344Z,93383.97
2023-05-19T14:21:11.040Z,93380.28
2023-05-19T14:26:15.376Z,93378.63
2023-05-19T14:31:19.265Z,93360.00
2023-05-19T14:36:23.295Z,93355.22
2023-05-19T14:41:26.633Z,93335.47
2023-05-19T14:46:30.528Z,93343.28
2023-05-19T14:51:33.939Z,93327.41
2023-05-19T14:56:37.665Z,93325.56
2023-05-19T15:01:41.974Z,93310.56
2023-05-19T15:06:48.153Z,93300.38
2023-05-19T15:11:56.327Z,93281.00
2023-05-19T15:17:00.320Z,93270.22
2023-05-19T15:22:04.502Z,93242.88
2023-05-19T15:27:09.148Z,93247.66
2023-05-19T15:32:13.031Z,93235.09
2023-05-19T15:37:17.255Z,93229.97
2023-05-19T15:42:21.125Z,93229.03
2023-05-19T15:47:24.800Z,93216.22
2023-05-19T15:52:28.329Z,93233.75
2023-05-19T15:57:32.281Z,93217.50
2023-05-19T16:02:36.254Z,93198.97
2023-05-19T16:07:42.342Z,93197.72
2023-05-19T16:12:46.569Z,93200.88
2023-05-19T16:17:50.622Z,93212.78
2023-05-19T16:22:55.859Z,93186.19
2023-05-19T16:27:59.439Z,93176.59
2023-05-19T16:33:02.786Z,93147.84
2023-05-19T16:38:06.915Z,93242.88
2023-05-19T16:43:12.147Z,93228.09
2023-05-19T16:48:16.200Z,93252.13
2023-05-19T16:53:20.371Z,93236.38
2023-05-19T16:58:24.174Z,93264.78
2023-05-19T17:03:28.014Z,93254.09
2023-05-19T17:08:31.734Z,93230.44
2023-05-19T17:13:36.853Z,93190.13
2023-05-19T17:18:41.127Z,93195.47
2023-05-19T17:23:44.889Z,93195.00
2023-05-19T17:28:48.925Z,93175.25
2023-05-19T17:33:52.513Z,93171.56
2023-05-19T17:45:12.178Z,93155.03
2023-05-19T17:50:15.609Z,93134.16
2023-05-19T17:55:20.363Z,93130.50
2023-05-19T18:00:25.382Z,93178.53
2023-05-19T18:05:29.268Z,93159.19
2023-05-19T18:10:37.964Z,93156.44
2023-05-19T18:15:42.305Z,93155.56
2023-05-19T18:20:45.986Z,93118.53
2023-05-19T18:25:51.960Z,93133.56
2023-05-19T18:31:06.419Z,93143.13
2023-05-19T18:36:09.601Z,93158.53
2023-05-19T18:41:14.303Z,93169.88
2023-05-19T18:46:21.064Z,93154.28
2023-05-19T18:51:24.227Z,93175.31
2023-05-19T18:56:31.396Z,93192.56
2023-05-19T19:01:35.350Z,93190.66
2023-05-19T19:06:38.939Z,93209.22
2023-05-19T19:11:42.640Z,93209.25
2023-05-19T19:16:46.778Z,93210.41
2023-05-19T19:21:50.311Z,93216.13
2023-05-19T19:26:53.874Z,93198.41
2023-05-19T19:31:57.469Z,93157.50
2023-05-19T19:37:01.208Z,93149.81
2023-05-19T19:42:05.175Z,93176.28
2023-05-19T19:47:09.092Z,93148.97
2023-05-19T19:52:12.881Z,93166.69
2023-05-19T19:57:19.689Z,93166.97
2023-05-19T20:02:23.270Z,93194.56
2023-05-19T20:07:27.461Z,93138.56
2023-05-19T20:12:30.969Z,93071.28
2023-05-19T20:17:35.029Z,93116.19
2023-05-19T20:22:39.961Z,93134.38
2023-05-19T20:27:43.120Z,93140.16
2023-05-19T20:32:47.005Z,93093.56
2023-05-19T20:37:50.564Z,93138.81
2023-05-19T20:42:54.090Z,93173.38
2023-05-19T20:47:59.708Z,93163.69
2023-05-19T20:53:03.575Z,93159.84
2023-05-19T20:58:06.745Z,93121.06
2023-05-19T21:03:11.865Z,93131.09
2023-05-19T21:08:14.997Z,93105.91
2023-05-19T21:13:19.000Z,93100.13
2023-05-19T21:18:22.713Z,93080.66
2023-05-19T21:23:26.304Z,93075.56
2023-05-19T21:28:29.844Z,93050.56
2023-05-19T21:33:33.313Z,93077.16
2023-05-19T21:38:37.059Z,93070.44
2023-05-19T21:43:43.209Z,93083.97
2023-05-19T21:48:47.729Z,93082.56
2023-05-19T21:53:51.101Z,93026.69
2023-05-19T21:58:54.159Z,93017.31
2023-05-19T22:03:57.980Z,92985.69
2023-05-19T22:09:02.895Z,92986.91
2023-05-19T22:14:07.127Z,93001.78
2023-05-19T22:19:11.583Z,92980.41
2023-05-19T22:24:15.360Z,92993.88
2023-05-19T22:29:18.923Z,92966.91
2023-05-19T22:34:22.412Z,92968.38
2023-05-19T22:39:25.987Z,92994.84
2023-05-19T22:44:29.826Z,92992.56
2023-05-19T22:49:33.078Z,93020.41
2023-05-19T22:54:36.907Z,93045.72
2023-05-19T22:59:41.530Z,93046.81
2023-05-19T23:04:44.985Z,93011.63
2023-05-19T23:09:49.101Z,93004.38
2023-05-19T23:14:53.706Z,93058.03
2023-05-19T23:19:57.340Z,93075.59
2023-05-19T23:25:02.236Z,93019.59
2023-05-19T23:30:06.312Z,93014.06
2023-05-19T23:35:17.531Z,93025.97
2023-05-19T23:40:21.360Z,92982.09
2023-05-19T23:45:24.803Z,92979.06
2023-05-19T23:50:27.823Z,92952.38
2023-05-19T23:55:31.539Z,92951.88
